createdAt,value
2019-05-12T00:02:14.382Z,14.73
2019-05-12T00:04:44.749Z,14.00
2019-05-12T00:07:15.238Z,13.27
2019-05-12T00:09:47.449Z,12.63
2019-05-12T00:12:18.269Z,12.63
2019-05-12T00:14:48.532Z,13.87
2019-05-12T00:17:18.734Z,13.80
2019-05-12T00:19:47.955Z,13.10
2019-05-12T00:22:18.165Z,12.73
2019-05-12T00:24:48.330Z,13.07
2019-05-12T00:27:19.467Z,13.37
2019-05-12T00:29:49.807Z,13.53
2019-05-12T00:32:20.408Z,13.97
2019-05-12T00:34:50.766Z,14.47
2019-05-12T00:37:21.675Z,15.03
2019-05-12T00:39:52.185Z,14.97
2019-05-12T00:42:22.456Z,15.30
2019-05-12T00:44:52.875Z,15.20
2019-05-12T00:47:23.380Z,15.60
2019-05-12T00:49:53.667Z,16.30
2019-05-12T00:52:24.161Z,16.10
2019-05-12T00:54:54.595Z,16.40
2019-05-12T00:57:24.984Z,15.93
2019-05-12T00:59:55.408Z,15.80
2019-05-12T01:02:25.219Z,16.47
2019-05-12T01:04:58.039Z,16.87
2019-05-12T01:07:27.735Z,16.03
2019-05-12T01:09:58.061Z,15.70
2019-05-12T01:12:28.499Z,15.03
2019-05-12T01:14:58.534Z,16.73
2019-05-12T01:17:28.248Z,15.70
2019-05-12T01:19:58.396Z,15.70
2019-05-12T01:22:28.451Z,14.53
2019-05-12T01:24:59.020Z,17.07
2019-05-12T01:27:29.387Z,17.90
2019-05-12T01:29:59.950Z,17.10
2019-05-12T01:32:33.531Z,16.73
2019-05-12T01:35:04.181Z,17.20
2019-05-12T01:37:34.606Z,17.63
2019-05-12T01:40:05.168Z,15.93
2019-05-12T01:42:38.012Z,14.93
2019-05-12T01:45:08.964Z,17.17
2019-05-12T01:47:38.241Z,15.73
2019-05-12T01:50:09.167Z,16.37
2019-05-12T01:52:38.572Z,15.63
2019-05-12T01:55:08.925Z,16.37
2019-05-12T01:57:39.259Z,17.87
2019-05-12T02:00:11.633Z,16.63
2019-05-12T02:02:42.438Z,17.60
2019-05-12T02:05:13.171Z,16.73
2019-05-12T02:07:48.823Z,17.20
2019-05-12T02:10:19.475Z,17.17
2019-05-12T02:12:50.085Z,15.30
2019-05-12T02:15:20.919Z,18.00
2019-05-12T02:17:51.436Z,16.47
2019-05-12T02:20:22.182Z,18.13
2019-05-12T02:22:52.504Z,17.80
2019-05-12T02:25:23.054Z,17.43
2019-05-12T02:27:53.463Z,17.70
2019-05-12T02:30:24.111Z,18.17
2019-05-12T02:32:58.765Z,18.00
2019-05-12T02:35:25.057Z,16.87
2019-05-12T02:37:55.604Z,16.47
2019-05-12T02:40:26.133Z,17.93
2019-05-12T02:42:56.509Z,15.90
2019-05-12T02:45:27.076Z,15.37
2019-05-12T02:47:57.517Z,15.40
2019-05-12T02:50:35.315Z,13.93
2019-05-12T02:53:05.231Z,13.53
2019-05-12T02:55:35.360Z,11.80
2019-05-12T02:58:06.109Z,11.93
2019-05-12T03:00:36.311Z,13.07
2019-05-12T03:03:06.806Z,13.40
2019-05-12T03:05:37.517Z,11.77
2019-05-12T03:08:07.927Z,12.10
2019-05-12T03:10:38.508Z,12.03
2019-05-12T03:13:09.003Z,10.10
2019-05-12T03:15:39.356Z,11.30
2019-05-12T03:18:09.760Z,11.67
2019-05-12T03:20:40.212Z,9.60
2019-05-12T03:23:10.700Z,11.13
2019-05-12T03:25:40.547Z,11.47
2019-05-12T03:28:10.983Z,11.17
2019-05-12T03:30:41.445Z,10.73
2019-05-12T03:33:18.315Z,9.90
2019-05-12T03:35:50.729Z,10.37
2019-05-12T03:38:14.913Z,10.23
2019-05-12T03:40:45.067Z,9.00
2019-05-12T03:43:14.773Z,8.30
2019-05-12T03:45:45.195Z,9.07
2019-05-12T03:48:15.323Z,7.67
2019-05-12T03:50:46.314Z,8.63
2019-05-12T03:53:16.260Z,8.23
2019-05-12T03:55:47.313Z,8.80
2019-05-12T03:58:17.109Z,9.77
2019-05-12T04:00:47.666Z,11.23
2019-05-12T04:03:18.064Z,10.07
2019-05-12T04:05:48.496Z,10.13
2019-05-12T04:08:19.130Z,12.07
2019-05-12T04:10:49.561Z,11.10
2019-05-12T04:13:20.164Z,11.93
2019-05-12T04:15:50.716Z,11.50
2019-05-12T04:18:24.538Z,13.27
2019-05-12T04:20:54.538Z,12.30
2019-05-12T04:23:24.743Z,12.33
2019-05-12T04:26:06.587Z,10.83
2019-05-12T04:28:24.575Z,8.97
2019-05-12T04:30:54.551Z,7.53
2019-05-12T04:33:25.704Z,8.20
2019-05-12T04:35:55.467Z,8.20
2019-05-12T04:38:25.344Z,7.80
2019-05-12T04:40:56.101Z,7.30
2019-05-12T04:43:26.642Z,7.27
2019-05-12T04:45:57.171Z,7.63
2019-05-12T04:48:27.696Z,8.27
2019-05-12T04:50:58.461Z,8.17
2019-05-12T04:53:28.896Z,8.07
2019-05-12T04:56:10.548Z,8.33
2019-05-12T04:58:30.189Z,9.83
2019-05-12T05:01:00.791Z,7.90
2019-05-12T05:03:31.255Z,7.40
2019-05-12T05:06:04.290Z,8.27
2019-05-12T05:08:34.649Z,6.43
2019-05-12T05:11:04.040Z,5.20
2019-05-12T05:13:36.782Z,5.70
2019-05-12T05:16:05.404Z,6.07
2019-05-12T05:18:34.470Z,5.50
2019-05-12T05:21:04.797Z,6.33
2019-05-12T05:23:35.092Z,5.10
2019-05-12T05:26:19.803Z,5.10
2019-05-12T05:28:36.227Z,5.87
2019-05-12T05:31:06.689Z,5.27
2019-05-12T05:33:37.225Z,5.77
2019-05-12T05:36:08.913Z,4.70
2019-05-12T05:38:38.163Z,5.90
2019-05-12T05:41:10.541Z,5.50
2019-05-12T05:43:39.025Z,6.73
2019-05-12T05:46:09.696Z,6.90
2019-05-12T05:48:40.288Z,5.23
2019-05-12T05:51:10.828Z,6.70
2019-05-12T05:53:41.260Z,5.37
2019-05-12T05:56:14.228Z,6.07
2019-05-12T05:58:49.576Z,5.63
2019-05-12T06:01:13.785Z,5.47
2019-05-12T06:03:44.177Z,5.40
2019-05-12T06:06:15.426Z,5.30
2019-05-12T06:08:48.604Z,4.67
2019-05-12T06:11:23.902Z,5.50
2019-05-12T06:13:49.547Z,5.30
2019-05-12T06:16:22.039Z,5.93
2019-05-12T06:18:50.309Z,5.67
2019-05-12T06:21:20.960Z,6.07
2019-05-12T06:23:51.320Z,5.10
2019-05-12T06:26:30.950Z,4.93
2019-05-12T06:28:55.939Z,4.73
2019-05-12T06:31:25.094Z,5.80
2019-05-12T06:33:53.805Z,4.70
2019-05-12T06:36:27.233Z,5.03
2019-05-12T06:38:54.724Z,4.83
2019-05-12T06:41:25.933Z,4.80
2019-05-12T06:43:55.471Z,4.33
2019-05-12T06:46:26.025Z,5.30
2019-05-12T06:49:00.755Z,4.87
2019-05-12T06:51:27.325Z,5.10
2019-05-12T06:54:00.818Z,5.43
2019-05-12T06:56:28.139Z,4.37
2019-05-12T06:59:01.012Z,4.50
2019-05-12T07:01:28.918Z,4.37
2019-05-12T07:04:00.616Z,3.80
2019-05-12T07:06:29.641Z,4.30
2019-05-12T07:09:06.448Z,3.50
2019-05-12T07:11:41.697Z,4.07
2019-05-12T07:14:07.322Z,19.97
2019-05-12T07:16:33.926Z,10.37
2019-05-12T07:19:07.552Z,6.10
2019-05-12T07:21:33.812Z,6.10
2019-05-12T07:24:09.110Z,4.00
2019-05-12T07:26:34.711Z,3.77
2019-05-12T07:29:10.731Z,3.80
2019-05-12T07:31:41.309Z,3.57
2019-05-12T07:34:13.639Z,3.20
2019-05-12T07:36:44.300Z,3.30
2019-05-12T07:39:13.612Z,2.80
2019-05-12T07:41:50.905Z,3.23
2019-05-12T07:44:15.105Z,3.00
2019-05-12T07:46:49.484Z,2.70
2019-05-12T07:49:16.160Z,2.30
2019-05-12T07:51:49.942Z,2.13
2019-05-12T07:54:17.348Z,3.00
2019-05-12T07:56:47.739Z,2.53
2019-05-12T07:59:18.084Z,2.60
2019-05-12T08:01:51.880Z,2.10
2019-05-12T08:04:18.898Z,2.13
2019-05-12T08:06:49.770Z,2.33
2019-05-12T08:09:24.169Z,2.70
2019-05-12T08:11:49.951Z,2.53
2019-05-12T08:14:25.801Z,3.20
2019-05-12T08:16:50.948Z,2.47
2019-05-12T08:22:13.582Z,2.87
2019-05-12T08:24:47.324Z,2.70
2019-05-12T08:27:14.334Z,2.90
2019-05-12T08:29:44.028Z,3.60
2019-05-12T08:32:15.934Z,3.40
2019-05-12T08:34:45.071Z,3.13
2019-05-12T08:37:15.519Z,3.50
2019-05-12T08:39:45.793Z,4.50
2019-05-12T08:42:16.372Z,3.83
2019-05-12T08:44:46.715Z,3.50
2019-05-12T08:47:17.223Z,3.10
2019-05-12T08:49:55.142Z,3.27
2019-05-12T08:52:18.483Z,3.57
2019-05-12T08:54:49.539Z,3.87
2019-05-12T08:57:19.433Z,4.20
2019-05-12T08:59:56.752Z,4.60
2019-05-12T09:02:20.399Z,4.67
2019-05-12T09:04:51.782Z,4.07
2019-05-12T09:07:21.457Z,3.20
2019-05-12T09:09:53.393Z,3.30
2019-05-12T09:12:23.293Z,3.83
2019-05-12T09:14:54.594Z,4.00
2019-05-12T09:17:23.334Z,4.47
2019-05-12T09:19:55.092Z,3.33
2019-05-12T09:22:24.226Z,2.90
2019-05-12T09:24:58.329Z,3.07
2019-05-12T09:27:25.371Z,4.27
2019-05-12T09:29:59.126Z,4.57
2019-05-12T09:32:26.234Z,7.07
2019-05-12T09:34:58.271Z,5.30
2019-05-12T09:37:30.976Z,7.60
2019-05-12T09:39:56.787Z,3.40
2019-05-12T09:42:29.976Z,3.43
2019-05-12T09:44:59.982Z,4.50
2019-05-12T09:47:27.765Z,3.40
2019-05-12T09:49:57.897Z,3.40
2019-05-12T09:52:28.482Z,3.50
2019-05-12T09:54:58.295Z,3.53
2019-05-12T09:57:34.699Z,3.10
2019-05-12T10:00:06.557Z,3.27
2019-05-12T10:02:36.947Z,4.00
2019-05-12T10:05:07.772Z,2.93
2019-05-12T10:07:38.089Z,2.67
2019-05-12T10:10:08.800Z,3.93
2019-05-12T10:12:46.242Z,3.37
2019-05-12T10:15:10.027Z,5.53
2019-05-12T10:17:40.351Z,3.50
2019-05-12T10:20:11.101Z,5.90
2019-05-12T10:22:43.524Z,4.77
2019-05-12T10:25:14.189Z,3.90
2019-05-12T10:27:44.268Z,3.30
2019-05-12T10:30:17.024Z,3.13
2019-05-12T10:32:43.781Z,3.97
2019-05-12T10:35:20.845Z,3.40
2019-05-12T10:37:47.284Z,4.80
2019-05-12T10:40:15.733Z,3.83
2019-05-12T10:42:49.539Z,3.57
2019-05-12T10:45:20.368Z,3.23
2019-05-12T10:47:47.416Z,5.87
2019-05-12T10:50:17.946Z,3.37
2019-05-12T10:52:48.772Z,5.30
2019-05-12T10:55:19.437Z,5.73
2019-05-12T10:57:53.024Z,4.37
2019-05-12T11:00:25.073Z,7.47
2019-05-12T11:02:53.361Z,5.47
2019-05-12T11:05:23.303Z,4.33
2019-05-12T11:07:53.878Z,3.00
2019-05-12T11:10:23.323Z,3.27
2019-05-12T11:12:52.834Z,2.97
2019-05-12T11:15:24.551Z,3.70
2019-05-12T11:17:58.459Z,2.60
2019-05-12T11:20:28.898Z,3.93
2019-05-12T11:22:59.284Z,3.30
2019-05-12T11:25:29.508Z,3.07
2019-05-12T11:27:59.935Z,3.47
2019-05-12T11:30:30.060Z,2.33
2019-05-12T11:32:59.952Z,2.80
2019-05-12T11:35:30.293Z,3.80
2019-05-12T11:38:04.558Z,4.47
2019-05-12T11:40:34.659Z,4.00
2019-05-12T11:43:04.249Z,3.37
2019-05-12T11:45:33.970Z,3.93
2019-05-12T11:48:09.954Z,3.10
2019-05-12T11:50:34.850Z,2.93
2019-05-12T11:53:05.653Z,3.43
2019-05-12T11:55:36.338Z,3.30
2019-05-12T11:58:11.389Z,4.03
2019-05-12T12:00:37.574Z,3.97
2019-05-12T12:03:17.867Z,3.87
2019-05-12T12:05:38.615Z,2.53
2019-05-12T12:08:08.229Z,3.27
2019-05-12T12:10:39.986Z,4.13
2019-05-12T12:13:08.980Z,3.80
2019-05-12T12:15:39.379Z,4.17
2019-05-12T12:18:14.930Z,9.90
2019-05-12T12:20:40.015Z,3.67
2019-05-12T12:23:11.299Z,2.93
2019-05-12T12:25:42.975Z,2.60
2019-05-12T12:28:10.593Z,2.40
2019-05-12T12:30:41.099Z,3.30
2019-05-12T12:33:14.109Z,2.77
2019-05-12T12:35:44.525Z,2.60
2019-05-12T12:38:14.093Z,4.30
2019-05-12T12:40:44.142Z,4.27
2019-05-12T12:43:14.948Z,5.03
2019-05-12T12:45:50.017Z,3.80
2019-05-12T12:48:25.500Z,3.40
2019-05-12T12:50:50.095Z,5.87
2019-05-12T12:53:20.981Z,4.10
2019-05-12T12:55:53.565Z,7.90
2019-05-12T12:58:28.337Z,5.10
2019-05-12T13:00:56.252Z,4.03
2019-05-12T13:03:25.695Z,2.77
2019-05-12T13:05:54.300Z,3.77
2019-05-12T13:08:24.662Z,3.00
2019-05-12T13:10:54.552Z,3.37
2019-05-12T13:13:24.916Z,2.27
2019-05-12T13:15:55.321Z,2.23
2019-05-12T13:18:32.683Z,2.90
2019-05-12T13:20:57.987Z,2.43
2019-05-12T13:23:37.286Z,2.60
2019-05-12T13:25:57.311Z,2.47
2019-05-12T13:28:27.801Z,2.17
2019-05-12T13:31:08.322Z,2.23
2019-05-12T13:33:28.891Z,2.37
2019-05-12T13:35:59.334Z,2.30
2019-05-12T13:38:30.370Z,5.03
2019-05-12T13:41:00.309Z,4.43
2019-05-12T13:43:30.767Z,2.97
2019-05-12T13:46:01.263Z,4.90
2019-05-12T13:48:31.601Z,2.90
2019-05-12T13:51:10.410Z,4.93
2019-05-12T13:53:33.514Z,3.23
2019-05-12T13:56:04.848Z,2.80
2019-05-12T13:58:40.316Z,2.70
2019-05-12T14:01:19.086Z,3.20
2019-05-12T14:03:34.801Z,2.37
2019-05-12T14:06:05.396Z,2.73
2019-05-12T14:08:35.788Z,2.53
2019-05-12T14:11:06.196Z,3.00
2019-05-12T14:13:36.473Z,3.20
2019-05-12T14:16:07.092Z,5.73
2019-05-12T14:18:37.235Z,4.50
2019-05-12T14:21:07.604Z,4.10
2019-05-12T14:23:37.954Z,3.30
2019-05-12T14:26:09.429Z,3.30
2019-05-12T14:28:39.586Z,3.70
2019-05-12T14:31:22.738Z,3.57
2019-05-12T14:33:39.560Z,4.03
2019-05-12T14:36:13.619Z,3.77
2019-05-12T14:38:40.257Z,3.87
2019-05-12T14:41:12.354Z,3.00
2019-05-12T14:43:40.406Z,3.80
2019-05-12T14:46:10.676Z,4.90
2019-05-12T14:48:46.473Z,4.53
2019-05-12T14:51:13.962Z,5.03
2019-05-12T14:53:44.368Z,6.33
2019-05-12T14:56:14.060Z,5.43
2019-05-12T14:58:44.207Z,3.50
2019-05-12T15:01:14.268Z,3.07
2019-05-12T15:03:47.728Z,3.23
2019-05-12T15:06:14.338Z,3.30
2019-05-12T15:08:45.661Z,4.00
2019-05-12T15:11:16.158Z,3.60
2019-05-12T15:13:46.432Z,3.53
2019-05-12T15:16:16.672Z,3.57
2019-05-12T15:18:48.958Z,3.77
2019-05-12T15:21:21.381Z,3.70
2019-05-12T15:23:47.937Z,3.43
2019-05-12T15:26:19.774Z,3.27
2019-05-12T15:28:48.653Z,3.73
2019-05-12T15:31:19.266Z,4.33
2019-05-12T15:33:49.585Z,4.57
2019-05-12T15:36:20.089Z,7.80
2019-05-12T15:38:55.816Z,8.87
2019-05-12T15:41:23.703Z,9.27
2019-05-12T15:43:53.638Z,7.50
2019-05-12T15:46:24.537Z,5.33
2019-05-12T15:48:53.505Z,6.33
2019-05-12T15:51:23.983Z,4.00
2019-05-12T15:53:59.554Z,3.97
2019-05-12T15:56:26.283Z,2.73
2019-05-12T15:58:55.859Z,2.70
2019-05-12T16:01:25.747Z,2.00
2019-05-12T16:03:56.163Z,5.80
2019-05-12T16:06:26.560Z,4.00
2019-05-12T16:08:56.959Z,6.20
2019-05-12T16:11:27.392Z,3.10
2019-05-12T16:13:59.404Z,4.20
2019-05-12T16:16:28.065Z,4.63
2019-05-12T16:18:58.399Z,4.73
2019-05-12T16:21:28.823Z,4.10
2019-05-12T16:24:03.026Z,6.20
2019-05-12T16:26:29.640Z,4.13
2019-05-12T16:29:03.136Z,3.37
2019-05-12T16:31:30.523Z,2.27
2019-05-12T16:34:05.469Z,3.17
2019-05-12T16:36:33.568Z,2.80
2019-05-12T16:39:03.564Z,2.80
2019-05-12T16:41:34.385Z,3.50
2019-05-12T16:44:07.852Z,3.10
2019-05-12T16:46:34.014Z,3.43
2019-05-12T16:49:04.255Z,6.23
2019-05-12T16:51:35.142Z,3.90
2019-05-12T16:54:05.607Z,3.37
2019-05-12T16:56:35.564Z,3.87
2019-05-12T16:59:15.340Z,3.80
2019-05-12T17:01:36.533Z,3.47
2019-05-12T17:04:06.837Z,3.50
2019-05-12T17:06:38.561Z,3.60
2019-05-12T17:09:08.551Z,3.70
2019-05-12T17:11:47.161Z,3.50
2019-05-12T17:14:09.501Z,4.10
2019-05-12T17:16:46.492Z,5.00
2019-05-12T17:19:10.747Z,6.10
2019-05-12T17:21:40.673Z,5.40
2019-05-12T17:24:11.048Z,3.90
2019-05-12T17:26:43.840Z,6.53
2019-05-12T17:29:13.709Z,4.67
2019-05-12T17:31:44.238Z,6.23
2019-05-12T17:34:14.282Z,5.37
2019-05-12T17:36:44.843Z,6.00
2019-05-12T17:39:13.929Z,4.53
2019-05-12T17:41:45.685Z,4.30
2019-05-12T17:44:15.518Z,4.80
2019-05-12T17:46:46.051Z,4.23
2019-05-12T17:49:25.636Z,3.40
2019-05-12T17:52:11.941Z,4.90
2019-05-12T17:54:36.456Z,7.00
2019-05-12T17:57:09.439Z,7.23
2019-05-12T17:59:37.318Z,9.30
2019-05-12T18:02:14.983Z,14.13
2019-05-12T18:04:37.516Z,9.60
2019-05-12T18:07:13.288Z,5.53
2019-05-12T18:09:38.388Z,5.37
2019-05-12T18:12:08.754Z,7.13
2019-05-12T18:14:46.767Z,4.83
2019-05-12T18:17:09.541Z,4.57
2019-05-12T18:19:39.864Z,3.70
2019-05-12T18:22:10.262Z,4.30
2019-05-12T18:24:40.899Z,5.17
2019-05-12T18:27:13.469Z,5.00
2019-05-12T18:29:43.977Z,4.40
2019-05-12T18:32:13.848Z,3.53
2019-05-12T18:34:44.309Z,3.83
2019-05-12T18:37:13.635Z,4.33
2019-05-12T18:39:43.735Z,4.40
2019-05-12T18:42:13.935Z,4.53
2019-05-12T18:44:43.981Z,5.73
2019-05-12T18:47:16.801Z,6.13
2019-05-12T18:49:48.013Z,5.80
2019-05-12T18:52:15.144Z,5.43
2019-05-12T18:54:52.076Z,6.80
2019-05-12T18:57:15.931Z,8.00
2019-05-12T18:59:54.388Z,7.40
2019-05-12T19:02:23.508Z,8.87
2019-05-12T19:04:47.164Z,9.90
2019-05-12T19:07:17.500Z,7.53
2019-05-12T19:09:47.836Z,7.00
2019-05-12T19:12:22.517Z,7.27
2019-05-12T19:14:51.746Z,8.47
2019-05-12T19:17:19.179Z,7.40
2019-05-12T19:19:53.975Z,9.53
2019-05-12T19:22:19.962Z,9.43
2019-05-12T19:24:55.374Z,8.73
2019-05-12T19:27:20.944Z,7.60
2019-05-12T19:29:50.841Z,7.70
2019-05-12T19:32:21.163Z,7.37
2019-05-12T19:34:54.464Z,6.77
2019-05-12T19:37:26.430Z,8.57
2019-05-12T19:39:53.834Z,5.03
2019-05-12T19:42:24.434Z,4.90
2019-05-12T19:44:56.642Z,6.00
2019-05-12T19:47:33.562Z,9.30
2019-05-12T19:49:59.566Z,5.90
2019-05-12T19:52:25.143Z,6.40
2019-05-12T19:54:55.637Z,6.10
2019-05-12T19:57:26.339Z,5.03
2019-05-12T19:59:56.784Z,5.33
2019-05-12T20:02:27.281Z,4.67
2019-05-12T20:04:57.655Z,4.30
2019-05-12T20:07:27.962Z,4.50
2019-05-12T20:10:00.515Z,4.50
2019-05-12T20:12:29.028Z,5.23
2019-05-12T20:14:59.460Z,7.47
2019-05-12T20:17:29.762Z,5.10
2019-05-12T20:20:00.162Z,6.70
2019-05-12T20:22:30.297Z,6.57
2019-05-12T20:25:00.530Z,7.37
2019-05-12T20:27:30.774Z,7.50
2019-05-12T20:30:01.111Z,6.50
2019-05-12T20:32:31.412Z,6.07
2019-05-12T20:35:04.057Z,5.57
2019-05-12T20:37:33.691Z,5.87
2019-05-12T20:40:05.357Z,6.20
2019-05-12T20:42:41.899Z,5.17
2019-05-12T20:45:05.336Z,5.10
2019-05-12T20:47:33.909Z,4.40
2019-05-12T20:50:04.480Z,4.40
2019-05-12T20:52:39.274Z,5.57
2019-05-12T20:55:05.855Z,5.20
2019-05-12T20:57:40.162Z,5.83
2019-05-12T21:00:08.628Z,6.17
2019-05-12T21:02:37.755Z,6.13
2019-05-12T21:05:14.831Z,5.83
2019-05-12T21:07:39.012Z,7.03
2019-05-12T21:10:09.624Z,6.37
2019-05-12T21:12:39.977Z,7.17
2019-05-12T21:15:16.332Z,7.50
2019-05-12T21:17:43.511Z,7.00
2019-05-12T21:20:14.373Z,7.80
2019-05-12T21:22:43.420Z,7.67
2019-05-12T21:25:12.822Z,6.17
2019-05-12T21:27:44.773Z,5.53
2019-05-12T21:30:15.163Z,5.43
2019-05-12T21:32:47.384Z,4.00
2019-05-12T21:35:21.882Z,4.97
2019-05-12T21:37:46.581Z,4.83
2019-05-12T21:40:15.232Z,4.57
2019-05-12T21:42:45.687Z,4.53
2019-05-12T21:45:20.127Z,4.43
2019-05-12T21:47:46.828Z,4.73
2019-05-12T21:50:17.385Z,3.30
2019-05-12T21:52:48.000Z,4.37
2019-05-12T21:55:21.638Z,3.60
2019-05-12T21:57:48.816Z,4.23
2019-05-12T22:00:24.378Z,3.57
2019-05-12T22:02:56.540Z,4.97
2019-05-12T22:05:46.971Z,3.83
2019-05-12T22:07:55.619Z,4.60
2019-05-12T22:10:30.638Z,4.07
2019-05-12T22:13:00.587Z,4.73
2019-05-12T22:15:28.776Z,3.93
2019-05-12T22:18:03.984Z,4.20
2019-05-12T22:20:31.346Z,4.40
2019-05-12T22:23:07.101Z,4.00
2019-05-12T22:25:34.509Z,3.80
2019-05-12T22:28:08.049Z,3.97
2019-05-12T22:30:34.893Z,4.27
2019-05-12T22:33:08.667Z,4.87
2019-05-12T22:35:34.764Z,4.70
2019-05-12T22:38:15.307Z,4.77
2019-05-12T22:40:35.548Z,4.70
2019-05-12T22:43:07.161Z,5.00
2019-05-12T22:45:44.239Z,5.33
2019-05-12T22:48:07.311Z,4.80
2019-05-12T22:50:37.799Z,5.40
2019-05-12T22:53:08.169Z,4.80
2019-05-12T22:55:38.593Z,4.90
2019-05-12T22:58:10.942Z,5.63
2019-05-12T23:00:39.651Z,4.73
2019-05-12T23:03:11.972Z,4.93
2019-05-12T23:05:39.982Z,5.03
2019-05-12T23:08:10.521Z,4.63
2019-05-12T23:10:41.671Z,5.27
2019-05-12T23:13:13.412Z,6.80
2019-05-12T23:15:47.494Z,5.60
2019-05-12T23:18:11.534Z,5.87
2019-05-12T23:20:43.893Z,4.37
2019-05-12T23:23:15.468Z,4.73
2019-05-12T23:25:44.095Z,4.43
2019-05-12T23:28:12.292Z,5.50
2019-05-12T23:30:43.881Z,5.53
2019-05-12T23:33:14.117Z,5.73
2019-05-12T23:35:44.338Z,4.63
2019-05-12T23:38:18.713Z,5.47
2019-05-12T23:40:44.150Z,4.53
2019-05-12T23:43:14.761Z,5.00
2019-05-12T23:45:45.416Z,5.80
2019-05-12T23:48:15.821Z,5.00
2019-05-12T23:50:46.154Z,4.73
2019-05-12T23:53:16.560Z,4.73
2019-05-12T23:55:47.053Z,4.10
2019-05-12T23:58:17.328Z,4.70
